sensor_id;sensor_type;location;lat;lon;timestamp;pressure;altitude;pressure_sealevel;temperature;humidity
23361;BME280;11852;50.082;18.554;2023-03-25T00:00:30;97522.5;;;12.78;84.65
23361;BME280;11852;50.082;18.554;2023-03-25T00:01:37;97530.5;;;12.82;84.5
23361;BME280;11852;50.082;18.554;2023-03-25T00:02:45;97539.0;;;12.82;84.61
23361;BME280;11852;50.082;18.554;2023-03-25T00:03:51;97540.0;;;12.93;84.12
23361;BME280;11852;50.082;18.554;2023-03-25T00:04:58;97541.5;;;13.07;83.77
23361;BME280;11852;50.082;18.554;2023-03-25T00:06:05;97541.5;;;13.07;83.83
23361;BME280;11852;50.082;18.554;2023-03-25T00:07:12;97541.0;;;13.11;83.66
23361;BME280;11852;50.082;18.554;2023-03-25T00:08:20;97540.0;;;13.11;83.68
23361;BME280;11852;50.082;18.554;2023-03-25T00:09:26;97539.0;;;13.03;83.88
23361;BME280;11852;50.082;18.554;2023-03-25T00:10:33;97538.0;;;12.9;84.35
23361;BME280;11852;50.082;18.554;2023-03-25T00:11:40;97537.5;;;12.8;84.51
23361;BME280;11852;50.082;18.554;2023-03-25T00:12:47;97537.5;;;12.77;84.46
23361;BME280;11852;50.082;18.554;2023-03-25T00:13:54;97540.5;;;12.77;84.62
23361;BME280;11852;50.082;18.554;2023-03-25T00:15:01;97539.5;;;12.83;84.43
23361;BME280;11852;50.082;18.554;2023-03-25T00:16:08;97537.5;;;12.77;84.65
23361;BME280;11852;50.082;18.554;2023-03-25T00:17:15;97541.5;;;12.78;84.6
23361;BME280;11852;50.082;18.554;2023-03-25T00:18:21;97539.0;;;12.86;84.17
23361;BME280;11852;50.082;18.554;2023-03-25T00:19:28;97534.5;;;12.82;84.36
23361;BME280;11852;50.082;18.554;2023-03-25T00:20:35;97530.5;;;12.73;84.62
23361;BME280;11852;50.082;18.554;2023-03-25T00:21:45;97524.5;;;12.78;84.4
23361;BME280;11852;50.082;18.554;2023-03-25T00:22:52;97521.5;;;12.51;85.56
23361;BME280;11852;50.082;18.554;2023-03-25T00:23:58;97518.0;;;12.63;84.93
23361;BME280;11852;50.082;18.554;2023-03-25T00:25:09;97522.5;;;12.75;84.43
23361;BME280;11852;50.082;18.554;2023-03-25T00:26:15;97520.49;;;12.74;84.6
23361;BME280;11852;50.082;18.554;2023-03-25T00:27:22;97520.49;;;12.77;84.25
23361;BME280;11852;50.082;18.554;2023-03-25T00:28:30;97522.5;;;12.75;84.46
23361;BME280;11852;50.082;18.554;2023-03-25T00:29:36;97525.0;;;12.77;84.35
23361;BME280;11852;50.082;18.554;2023-03-25T00:30:43;97524.5;;;12.87;84.04
23361;BME280;11852;50.082;18.554;2023-03-25T00:31:49;97522.5;;;12.83;84.38
23361;BME280;11852;50.082;18.554;2023-03-25T00:32:56;97525.0;;;12.64;85.04
23361;BME280;11852;50.082;18.554;2023-03-25T00:34:06;97525.0;;;12.58;85.04
23361;BME280;11852;50.082;18.554;2023-03-25T00:35:13;97525.0;;;12.7;84.71
23361;BME280;11852;50.082;18.554;2023-03-25T00:36:20;97523.5;;;12.8;84.51
23361;BME280;11852;50.082;18.554;2023-03-25T00:37:27;97526.5;;;12.93;83.96
23361;BME280;11852;50.082;18.554;2023-03-25T00:38:34;97529.5;;;12.95;83.93
23361;BME280;11852;50.082;18.554;2023-03-25T00:39:41;97531.0;;;12.98;83.88
23361;BME280;11852;50.082;18.554;2023-03-25T00:40:48;97533.5;;;13.02;83.68
23361;BME280;11852;50.082;18.554;2023-03-25T00:41:55;97536.0;;;13.06;83.63
23361;BME280;11852;50.082;18.554;2023-03-25T00:43:02;97535.5;;;13.06;83.69
23361;BME280;11852;50.082;18.554;2023-03-25T00:44:09;97534.5;;;13.05;83.64
23361;BME280;11852;50.082;18.554;2023-03-25T00:45:15;97532.5;;;13.03;83.71
23361;BME280;11852;50.082;18.554;2023-03-25T00:46:23;97532.99;;;13.04;83.68
23361;BME280;11852;50.082;18.554;2023-03-25T00:47:29;97529.5;;;13.06;83.62
23361;BME280;11852;50.082;18.554;2023-03-25T00:48:36;97531.49;;;13.11;83.47
23361;BME280;11852;50.082;18.554;2023-03-25T00:49:43;97535.0;;;13.16;83.42
23361;BME280;11852;50.082;18.554;2023-03-25T00:50:50;97535.0;;;13.13;83.54
23361;BME280;11852;50.082;18.554;2023-03-25T00:51:57;97535.0;;;13.08;83.69
23361;BME280;11852;50.082;18.554;2023-03-25T00:53:04;97534.0;;;13.1;83.6
23361;BME280;11852;50.082;18.554;2023-03-25T00:54:11;97532.0;;;13.16;83.4
23361;BME280;11852;50.082;18.554;2023-03-25T00:55:18;97531.5;;;13.19;83.26
23361;BME280;11852;50.082;18.554;2023-03-25T00:56:25;97532.99;;;13.22;83.22
23361;BME280;11852;50.082;18.554;2023-03-25T00:57:31;97535.5;;;13.23;83.2
23361;BME280;11852;50.082;18.554;2023-03-25T00:58:38;97532.99;;;13.1;83.56
23361;BME280;11852;50.082;18.554;2023-03-25T00:59:45;97534.0;;;13.18;83.35
23361;BME280;11852;50.082;18.554;2023-03-25T01:00:52;97530.0;;;13.04;83.79
23361;BME280;11852;50.082;18.554;2023-03-25T01:01:59;97532.0;;;13.14;83.43
23361;BME280;11852;50.082;18.554;2023-03-25T01:03:06;97533.0;;;13.16;83.41
23361;BME280;11852;50.082;18.554;2023-03-25T01:04:13;97533.5;;;13.17;83.28
23361;BME280;11852;50.082;18.554;2023-03-25T01:05:19;97532.0;;;13.13;83.4
23361;BME280;11852;50.082;18.554;2023-03-25T01:07:38;97531.49;;;12.92;84.03
23361;BME280;11852;50.082;18.554;2023-03-25T01:08:45;97538.0;;;13.05;83.58
23361;BME280;11852;50.082;18.554;2023-03-25T01:09:53;97540.0;;;13.1;83.43
23361;BME280;11852;50.082;18.554;2023-03-25T01:11:00;97540.5;;;12.77;84.59
23361;BME280;11852;50.082;18.554;2023-03-25T01:12:07;97537.5;;;12.81;84.32
23361;BME280;11852;50.082;18.554;2023-03-25T01:13:13;97537.5;;;12.91;83.96
23361;BME280;11852;50.082;18.554;2023-03-25T01:14:20;97539.5;;;12.92;83.96
23361;BME280;11852;50.082;18.554;2023-03-25T01:15:27;97535.0;;;12.85;84.32
23361;BME280;11852;50.082;18.554;2023-03-25T01:16:34;97538.0;;;12.93;83.94
23361;BME280;11852;50.082;18.554;2023-03-25T01:17:41;97540.0;;;12.8;84.32
23361;BME280;11852;50.082;18.554;2023-03-25T01:18:48;97545.0;;;12.78;84.35
23361;BME280;11852;50.082;18.554;2023-03-25T01:19:55;97550.0;;;12.8;84.24
23361;BME280;11852;50.082;18.554;2023-03-25T01:21:03;97554.51;;;12.77;84.19
23361;BME280;11852;50.082;18.554;2023-03-25T01:22:08;97556.0;;;12.82;84.17
23361;BME280;11852;50.082;18.554;2023-03-25T01:23:15;97558.5;;;12.91;83.9
23361;BME280;11852;50.082;18.554;2023-03-25T01:24:22;97558.5;;;12.99;83.69
23361;BME280;11852;50.082;18.554;2023-03-25T01:25:29;97555.0;;;13.05;83.57
23361;BME280;11852;50.082;18.554;2023-03-25T01:26:36;97555.0;;;13.06;83.47
23361;BME280;11852;50.082;18.554;2023-03-25T01:27:42;97551.0;;;13.11;83.29
23361;BME280;11852;50.082;18.554;2023-03-25T01:28:49;97549.0;;;12.95;83.87
23361;BME280;11852;50.082;18.554;2023-03-25T01:29:56;97549.5;;;12.92;83.84
23361;BME280;11852;50.082;18.554;2023-03-25T01:31:05;97550.5;;;12.89;83.9
23361;BME280;11852;50.082;18.554;2023-03-25T01:32:10;97554.51;;;12.91;83.82
23361;BME280;11852;50.082;18.554;2023-03-25T01:33:17;97554.51;;;12.7;84.21
23361;BME280;11852;50.082;18.554;2023-03-25T01:34:24;97551.0;;;12.46;84.76
23361;BME280;11852;50.082;18.554;2023-03-25T01:35:31;97552.0;;;12.68;84.08
23361;BME280;11852;50.082;18.554;2023-03-25T01:36:37;97549.5;;;12.74;83.93
23361;BME280;11852;50.082;18.554;2023-03-25T01:37:44;97548.0;;;12.87;83.56
23361;BME280;11852;50.082;18.554;2023-03-25T01:38:51;97547.5;;;12.9;83.48
23361;BME280;11852;50.082;18.554;2023-03-25T01:39:58;97546.5;;;12.86;83.54
23361;BME280;11852;50.082;18.554;2023-03-25T01:41:05;97542.51;;;12.76;83.18
23361;BME280;11852;50.082;18.554;2023-03-25T01:42:12;97537.0;;;12.71;82.63
23361;BME280;11852;50.082;18.554;2023-03-25T01:43:20;97534.5;;;12.74;81.88
23361;BME280;11852;50.082;18.554;2023-03-25T01:45:33;97539.0;;;12.43;82.1
23361;BME280;11852;50.082;18.554;2023-03-25T01:46:44;97542.51;;;12.61;80.45
23361;BME280;11852;50.082;18.554;2023-03-25T01:47:52;97545.5;;;12.66;80.1
23361;BME280;11852;50.082;18.554;2023-03-25T01:48:57;97547.0;;;12.85;79.71
23361;BME280;11852;50.082;18.554;2023-03-25T01:50:04;97549.5;;;12.88;79.68
23361;BME280;11852;50.082;18.554;2023-03-25T01:51:13;97549.5;;;12.79;79.57
23361;BME280;11852;50.082;18.554;2023-03-25T01:52:22;97550.0;;;12.85;79.15
23361;BME280;11852;50.082;18.554;2023-03-25T01:53:28;97547.0;;;12.89;78.85
23361;BME280;11852;50.082;18.554;2023-03-25T01:54:35;97548.0;;;12.96;78.71
23361;BME280;11852;50.082;18.554;2023-03-25T01:55:41;97545.0;;;12.78;78.9
23361;BME280;11852;50.082;18.554;2023-03-25T01:56:48;97541.0;;;12.7;79.01
23361;BME280;11852;50.082;18.554;2023-03-25T01:57:55;97540.5;;;12.84;78.55
23361;BME280;11852;50.082;18.554;2023-03-25T01:59:03;97539.0;;;12.94;78.16
23361;BME280;11852;50.082;18.554;2023-03-25T02:00:09;97539.5;;;12.97;78.17
23361;BME280;11852;50.082;18.554;2023-03-25T02:01:17;97535.5;;;13.0;78.31
23361;BME280;11852;50.082;18.554;2023-03-25T02:02:24;97535.5;;;13.03;78.25
23361;BME280;11852;50.082;18.554;2023-03-25T02:03:31;97534.5;;;13.06;78.33
23361;BME280;11852;50.082;18.554;2023-03-25T02:05:59;97536.0;;;12.98;78.19
23361;BME280;11852;50.082;18.554;2023-03-25T02:07:04;97537.0;;;12.98;78.07
23361;BME280;11852;50.082;18.554;2023-03-25T02:08:11;97538.0;;;12.99;78.01
23361;BME280;11852;50.082;18.554;2023-03-25T02:09:18;97530.5;;;12.8;77.76
23361;BME280;11852;50.082;18.554;2023-03-25T02:10:24;97532.99;;;12.86;77.5
23361;BME280;11852;50.082;18.554;2023-03-25T02:11:32;97533.0;;;12.92;77.73
23361;BME280;11852;50.082;18.554;2023-03-25T02:12:39;97532.99;;;12.93;78.25
23361;BME280;11852;50.082;18.554;2023-03-25T02:13:45;97539.5;;;12.96;78.41
23361;BME280;11852;50.082;18.554;2023-03-25T02:14:52;97543.0;;;12.95;78.42
23361;BME280;11852;50.082;18.554;2023-03-25T02:19:18;97550.5;;;12.95;79.08
23361;BME280;11852;50.082;18.554;2023-03-25T02:26:04;97574.5;;;12.89;82.46
23361;BME280;11852;50.082;18.554;2023-03-25T02:29:43;97559.5;;;12.78;83.04
23361;BME280;11852;50.082;18.554;2023-03-25T02:30:54;97555.01;;;12.79;83.12
23361;BME280;11852;50.082;18.554;2023-03-25T02:32:06;97552.0;;;12.76;83.18
23361;BME280;11852;50.082;18.554;2023-03-25T02:35:55;97551.0;;;12.7;83.23
23361;BME280;11852;50.082;18.554;2023-03-25T02:38:21;97553.5;;;12.68;83.18
23361;BME280;11852;50.082;18.554;2023-03-25T02:39:38;97552.0;;;12.69;83.13
23361;BME280;11852;50.082;18.554;2023-03-25T02:41:28;97551.0;;;12.61;83.24
23361;BME280;11852;50.082;18.554;2023-03-25T02:42:39;97548.0;;;12.6;83.3
23361;BME280;11852;50.082;18.554;2023-03-25T02:43:00;97546.0;;;12.59;83.32
23361;BME280;11852;50.082;18.554;2023-03-25T02:45:34;97547.0;;;12.57;83.27
23361;BME280;11852;50.082;18.554;2023-03-25T02:46:42;97551.0;;;12.55;83.22
23361;BME280;11852;50.082;18.554;2023-03-25T02:47:48;97551.0;;;12.53;83.32
23361;BME280;11852;50.082;18.554;2023-03-25T02:51:21;97553.0;;;12.52;83.4
23361;BME280;11852;50.082;18.554;2023-03-25T02:53:39;97556.5;;;12.51;83.38
23361;BME280;11852;50.082;18.554;2023-03-25T02:54:45;97561.5;;;12.46;83.43
23361;BME280;11852;50.082;18.554;2023-03-25T02:55:53;97565.5;;;12.44;83.44
23361;BME280;11852;50.082;18.554;2023-03-25T02:56:59;97569.0;;;12.41;83.47
23361;BME280;11852;50.082;18.554;2023-03-25T02:58:07;97572.0;;;12.42;83.49
23361;BME280;11852;50.082;18.554;2023-03-25T02:59:13;97572.5;;;12.39;83.59
23361;BME280;11852;50.082;18.554;2023-03-25T03:00:22;97574.0;;;12.4;83.57
23361;BME280;11852;50.082;18.554;2023-03-25T03:01:27;97574.5;;;12.41;83.58
23361;BME280;11852;50.082;18.554;2023-03-25T03:02:34;97578.5;;;12.43;83.59
23361;BME280;11852;50.082;18.554;2023-03-25T03:03:41;97582.0;;;12.4;83.57
23361;BME280;11852;50.082;18.554;2023-03-25T03:04:49;97581.5;;;12.41;83.58
23361;BME280;11852;50.082;18.554;2023-03-25T03:05:58;97582.0;;;12.39;83.65
23361;BME280;11852;50.082;18.554;2023-03-25T03:07:01;97582.99;;;12.36;83.68
23361;BME280;11852;50.082;18.554;2023-03-25T03:08:15;97584.0;;;12.39;83.58
23361;BME280;11852;50.082;18.554;2023-03-25T03:11:49;97588.0;;;12.35;83.46
23361;BME280;11852;50.082;18.554;2023-03-25T03:18:00;97593.5;;;12.3;83.08
23361;BME280;11852;50.082;18.554;2023-03-25T03:21:34;97592.0;;;12.27;83.06
23361;BME280;11852;50.082;18.554;2023-03-25T03:22:40;97592.5;;;12.26;83.12
23361;BME280;11852;50.082;18.554;2023-03-25T03:25:19;97588.5;;;12.17;83.44
23361;BME280;11852;50.082;18.554;2023-03-25T03:26:19;97594.0;;;12.09;83.49
23361;BME280;11852;50.082;18.554;2023-03-25T03:27:27;97591.5;;;12.0;83.72
23361;BME280;11852;50.082;18.554;2023-03-25T03:28:41;97592.0;;;11.95;83.83
23361;BME280;11852;50.082;18.554;2023-03-25T03:29:48;97589.5;;;11.91;83.96
23361;BME280;11852;50.082;18.554;2023-03-25T03:32:19;97589.0;;;11.64;84.68
23361;BME280;11852;50.082;18.554;2023-03-25T03:33:25;97593.01;;;11.85;84.07
23361;BME280;11852;50.082;18.554;2023-03-25T03:37:01;97591.0;;;11.93;84.02
23361;BME280;11852;50.082;18.554;2023-03-25T03:38:11;97592.51;;;11.9;84.06
23361;BME280;11852;50.082;18.554;2023-03-25T03:39:19;97594.0;;;12.0;83.79
23361;BME280;11852;50.082;18.554;2023-03-25T03:40:25;97593.51;;;12.02;83.68
23361;BME280;11852;50.082;18.554;2023-03-25T03:41:32;97594.0;;;12.02;83.77
23361;BME280;11852;50.082;18.554;2023-03-25T03:42:42;97590.5;;;12.06;83.67
23361;BME280;11852;50.082;18.554;2023-03-25T03:44:01;97588.5;;;12.06;83.67
23361;BME280;11852;50.082;18.554;2023-03-25T03:44:59;97584.0;;;12.02;83.76
23361;BME280;11852;50.082;18.554;2023-03-25T03:46:05;97581.5;;;11.85;84.13
23361;BME280;11852;50.082;18.554;2023-03-25T03:47:13;97581.5;;;11.68;84.51
23361;BME280;11852;50.082;18.554;2023-03-25T03:50:47;97581.0;;;11.68;84.29
23361;BME280;11852;50.082;18.554;2023-03-25T03:51:55;97580.0;;;11.8;84.01
23361;BME280;11852;50.082;18.554;2023-03-25T03:53:04;97586.0;;;11.85;83.9
23361;BME280;11852;50.082;18.554;2023-03-25T03:55:30;97589.5;;;11.95;83.71
23361;BME280;11852;50.082;18.554;2023-03-25T03:56:40;97591.5;;;11.96;83.68
23361;BME280;11852;50.082;18.554;2023-03-25T03:57:48;97593.0;;;11.95;83.67
23361;BME280;11852;50.082;18.554;2023-03-25T03:58:50;97594.0;;;11.93;83.75
23361;BME280;11852;50.082;18.554;2023-03-25T04:01:16;97590.5;;;11.85;83.83
23361;BME280;11852;50.082;18.554;2023-03-25T04:02:27;97592.0;;;11.68;84.42
23361;BME280;11852;50.082;18.554;2023-03-25T04:04:49;97596.5;;;11.6;84.53
23361;BME280;11852;50.082;18.554;2023-03-25T04:05:57;97597.5;;;11.65;84.37
23361;BME280;11852;50.082;18.554;2023-03-25T04:07:08;97600.5;;;11.5;84.79
23361;BME280;11852;50.082;18.554;2023-03-25T04:08:36;97601.5;;;11.53;84.66
23361;BME280;11852;50.082;18.554;2023-03-25T04:09:29;97604.0;;;11.66;84.26
23361;BME280;11852;50.082;18.554;2023-03-25T04:10:35;97603.5;;;11.7;84.14
23361;BME280;11852;50.082;18.554;2023-03-25T04:11:41;97600.0;;;11.58;84.49
23361;BME280;11852;50.082;18.554;2023-03-25T04:12:51;97595.0;;;11.54;84.44
23361;BME280;11852;50.082;18.554;2023-03-25T04:13:58;97592.5;;;11.45;84.74
23361;BME280;11852;50.082;18.554;2023-03-25T04:15:05;97595.49;;;11.5;84.58
23361;BME280;11852;50.082;18.554;2023-03-25T04:16:12;97598.5;;;11.53;84.53
23361;BME280;11852;50.082;18.554;2023-03-25T04:17:19;97595.5;;;11.61;84.26
23361;BME280;11852;50.082;18.554;2023-03-25T04:18:26;97593.51;;;11.68;84.08
23361;BME280;11852;50.082;18.554;2023-03-25T04:19:33;97591.5;;;11.73;84.01
23361;BME280;11852;50.082;18.554;2023-03-25T04:20:43;97595.0;;;11.74;83.86
23361;BME280;11852;50.082;18.554;2023-03-25T04:21:50;97598.5;;;11.71;83.97
23361;BME280;11852;50.082;18.554;2023-03-25T04:22:56;97600.5;;;11.65;84.01
23361;BME280;11852;50.082;18.554;2023-03-25T04:24:03;97602.0;;;11.53;84.34
23361;BME280;11852;50.082;18.554;2023-03-25T04:25:11;97603.5;;;11.63;84.04
23361;BME280;11852;50.082;18.554;2023-03-25T04:26:17;97606.0;;;11.64;83.97
23361;BME280;11852;50.082;18.554;2023-03-25T04:27:24;97605.5;;;11.61;84.01
23361;BME280;11852;50.082;18.554;2023-03-25T04:28:31;97604.0;;;11.56;84.15
23361;BME280;11852;50.082;18.554;2023-03-25T04:29:38;97605.0;;;11.5;84.29
23361;BME280;11852;50.082;18.554;2023-03-25T04:30:45;97603.5;;;11.43;84.51
23361;BME280;11852;50.082;18.554;2023-03-25T04:31:51;97606.5;;;11.46;84.41
23361;BME280;11852;50.082;18.554;2023-03-25T04:32:58;97611.0;;;11.4;84.54
23361;BME280;11852;50.082;18.554;2023-03-25T04:34:05;97613.5;;;11.39;84.63
23361;BME280;11852;50.082;18.554;2023-03-25T04:35:15;97613.0;;;11.45;84.33
23361;BME280;11852;50.082;18.554;2023-03-25T04:36:22;97611.5;;;11.44;84.35
23361;BME280;11852;50.082;18.554;2023-03-25T04:37:28;97612.0;;;11.38;84.49
23361;BME280;11852;50.082;18.554;2023-03-25T04:38:35;97607.5;;;11.26;84.88
23361;BME280;11852;50.082;18.554;2023-03-25T04:39:42;97607.99;;;11.24;84.82
23361;BME280;11852;50.082;18.554;2023-03-25T04:40:49;97609.5;;;11.3;84.56
23361;BME280;11852;50.082;18.554;2023-03-25T04:41:56;97604.5;;;11.2;84.79
23361;BME280;11852;50.082;18.554;2023-03-25T04:43:03;97607.5;;;11.17;84.83
23361;BME280;11852;50.082;18.554;2023-03-25T04:44:09;97607.5;;;11.27;84.51
23361;BME280;11852;50.082;18.554;2023-03-25T04:45:16;97609.0;;;11.18;84.8
23361;BME280;11852;50.082;18.554;2023-03-25T04:46:23;97608.5;;;11.31;84.36
23361;BME280;11852;50.082;18.554;2023-03-25T04:47:30;97610.0;;;11.35;84.26
23361;BME280;11852;50.082;18.554;2023-03-25T04:48:37;97610.5;;;11.43;84.0
23361;BME280;11852;50.082;18.554;2023-03-25T04:49:44;97611.5;;;11.45;83.97
23361;BME280;11852;50.082;18.554;2023-03-25T04:50:50;97613.5;;;11.4;84.13
23361;BME280;11852;50.082;18.554;2023-03-25T04:51:57;97611.0;;;11.35;84.28
23361;BME280;11852;50.082;18.554;2023-03-25T04:53:04;97608.5;;;11.35;84.27
23361;BME280;11852;50.082;18.554;2023-03-25T04:54:11;97608.5;;;11.37;84.18
23361;BME280;11852;50.082;18.554;2023-03-25T04:55:18;97610.0;;;11.38;84.1
23361;BME280;11852;50.082;18.554;2023-03-25T04:56:25;97607.0;;;11.3;84.24
23361;BME280;11852;50.082;18.554;2023-03-25T04:57:32;97607.49;;;11.25;84.35
23361;BME280;11852;50.082;18.554;2023-03-25T04:58:38;97608.5;;;11.2;84.38
23361;BME280;11852;50.082;18.554;2023-03-25T04:59:45;97609.5;;;11.15;84.54
23361;BME280;11852;50.082;18.554;2023-03-25T05:00:52;97613.0;;;11.18;84.32
23361;BME280;11852;50.082;18.554;2023-03-25T05:01:59;97615.5;;;11.19;84.28
23361;BME280;11852;50.082;18.554;2023-03-25T05:03:07;97616.0;;;11.18;84.28
23361;BME280;11852;50.082;18.554;2023-03-25T05:04:14;97615.0;;;11.15;84.22
23361;BME280;11852;50.082;18.554;2023-03-25T05:05:23;97614.0;;;11.23;83.99
23361;BME280;11852;50.082;18.554;2023-03-25T05:06:36;97612.0;;;11.14;84.2
23361;BME280;11852;50.082;18.554;2023-03-25T05:07:39;97608.5;;;11.16;84.11
23361;BME280;11852;50.082;18.554;2023-03-25T05:08:46;97614.5;;;11.13;84.21
23361;BME280;11852;50.082;18.554;2023-03-25T05:09:52;97614.0;;;11.15;84.16
23361;BME280;11852;50.082;18.554;2023-03-25T05:10:59;97615.0;;;11.09;84.32
23361;BME280;11852;50.082;18.554;2023-03-25T05:12:07;97615.5;;;11.16;84.12
23361;BME280;11852;50.082;18.554;2023-03-25T05:13:13;97611.5;;;11.22;84.02
23361;BME280;11852;50.082;18.554;2023-03-25T05:14:20;97610.5;;;11.24;83.92
23361;BME280;11852;50.082;18.554;2023-03-25T05:15:27;97607.0;;;11.29;83.77
23361;BME280;11852;50.082;18.554;2023-03-25T05:16:34;97607.0;;;11.4;83.49
23361;BME280;11852;50.082;18.554;2023-03-25T05:17:41;97610.0;;;11.36;83.53
23361;BME280;11852;50.082;18.554;2023-03-25T05:18:48;97612.5;;;11.29;83.7
23361;BME280;11852;50.082;18.554;2023-03-25T05:19:55;97621.5;;;11.21;83.88
23361;BME280;11852;50.082;18.554;2023-03-25T05:21:02;97623.0;;;11.11;84.24
23361;BME280;11852;50.082;18.554;2023-03-25T05:22:09;97628.5;;;11.11;84.22
23361;BME280;11852;50.082;18.554;2023-03-25T05:23:16;97633.5;;;11.13;84.18
23361;BME280;11852;50.082;18.554;2023-03-25T05:24:23;97634.0;;;11.04;84.57
23361;BME280;11852;50.082;18.554;2023-03-25T05:25:30;97636.5;;;11.01;84.72
23361;BME280;11852;50.082;18.554;2023-03-25T05:26:37;97635.5;;;10.94;85.03
23361;BME280;11852;50.082;18.554;2023-03-25T05:27:43;97636.5;;;11.06;84.66
23361;BME280;11852;50.082;18.554;2023-03-25T05:28:50;97633.5;;;11.0;84.88
23361;BME280;11852;50.082;18.554;2023-03-25T05:29:57;97632.99;;;11.13;84.5
23361;BME280;11852;50.082;18.554;2023-03-25T05:31:09;97628.5;;;11.15;84.45
23361;BME280;11852;50.082;18.554;2023-03-25T05:32:19;97626.0;;;11.18;84.32
23361;BME280;11852;50.082;18.554;2023-03-25T05:33:25;97627.0;;;11.12;84.47
23361;BME280;11852;50.082;18.554;2023-03-25T05:34:32;97632.0;;;11.07;84.65
23361;BME280;11852;50.082;18.554;2023-03-25T05:35:40;97632.49;;;10.95;85.04
23361;BME280;11852;50.082;18.554;2023-03-25T05:36:47;97636.5;;;10.87;85.44
23361;BME280;11852;50.082;18.554;2023-03-25T05:37:54;97632.99;;;10.9;85.4
23361;BME280;11852;50.082;18.554;2023-03-25T05:39:02;97634.5;;;10.99;85.14
23361;BME280;11852;50.082;18.554;2023-03-25T05:40:08;97636.5;;;10.9;85.59
23361;BME280;11852;50.082;18.554;2023-03-25T05:41:15;97634.5;;;10.98;85.31
23361;BME280;11852;50.082;18.554;2023-03-25T05:42:22;97634.5;;;10.98;85.4
23361;BME280;11852;50.082;18.554;2023-03-25T05:43:29;97633.0;;;11.03;85.25
23361;BME280;11852;50.082;18.554;2023-03-25T05:44:36;97633.5;;;10.98;85.51
23361;BME280;11852;50.082;18.554;2023-03-25T05:45:44;97628.5;;;11.06;85.19
23361;BME280;11852;50.082;18.554;2023-03-25T05:46:51;97627.0;;;11.01;85.46
23361;BME280;11852;50.082;18.554;2023-03-25T05:47:57;97627.5;;;11.03;85.45
23361;BME280;11852;50.082;18.554;2023-03-25T05:49:04;97626.0;;;11.07;85.4
23361;BME280;11852;50.082;18.554;2023-03-25T05:50:11;97626.0;;;11.07;85.43
23361;BME280;11852;50.082;18.554;2023-03-25T05:51:22;97627.0;;;11.03;85.6
23361;BME280;11852;50.082;18.554;2023-03-25T05:52:29;97631.0;;;11.09;85.39
23361;BME280;11852;50.082;18.554;2023-03-25T05:53:35;97633.5;;;11.02;85.74
23361;BME280;11852;50.082;18.554;2023-03-25T05:54:43;97636.0;;;11.03;85.79
23361;BME280;11852;50.082;18.554;2023-03-25T05:55:49;97636.0;;;11.02;85.83
23361;BME280;11852;50.082;18.554;2023-03-25T05:56:56;97636.0;;;11.07;85.63
23361;BME280;11852;50.082;18.554;2023-03-25T05:58:03;97637.0;;;10.85;86.52
23361;BME280;11852;50.082;18.554;2023-03-25T05:59:10;97636.0;;;10.99;85.92
23361;BME280;11852;50.082;18.554;2023-03-25T06:00:17;97638.5;;;11.03;85.77
23361;BME280;11852;50.082;18.554;2023-03-25T06:01:23;97640.5;;;10.93;86.28
23361;BME280;11852;50.082;18.554;2023-03-25T06:02:30;97641.0;;;10.98;85.99
23361;BME280;11852;50.082;18.554;2023-03-25T06:03:37;97642.5;;;10.95;86.22
23361;BME280;11852;50.082;18.554;2023-03-25T06:04:46;97647.0;;;10.86;86.58
23361;BME280;11852;50.082;18.554;2023-03-25T06:05:51;97647.0;;;10.83;86.65
23361;BME280;11852;50.082;18.554;2023-03-25T06:06:58;97650.0;;;10.81;86.68
23361;BME280;11852;50.082;18.554;2023-03-25T06:08:05;97653.5;;;10.83;86.6
23361;BME280;11852;50.082;18.554;2023-03-25T06:09:11;97655.0;;;10.8;86.58
23361;BME280;11852;50.082;18.554;2023-03-25T06:10:18;97655.0;;;10.83;86.49
23361;BME280;11852;50.082;18.554;2023-03-25T06:11:25;97657.5;;;10.86;86.35
23361;BME280;11852;50.082;18.554;2023-03-25T06:12:32;97658.5;;;10.86;86.29
23361;BME280;11852;50.082;18.554;2023-03-25T06:13:39;97656.5;;;10.83;86.39
23361;BME280;11852;50.082;18.554;2023-03-25T06:14:46;97661.0;;;10.9;86.03
23361;BME280;11852;50.082;18.554;2023-03-25T06:15:53;97660.5;;;10.86;86.13
23361;BME280;11852;50.082;18.554;2023-03-25T06:17:00;97660.0;;;10.96;85.51
23361;BME280;11852;50.082;18.554;2023-03-25T06:18:07;97661.0;;;11.05;85.33
23361;BME280;11852;50.082;18.554;2023-03-25T06:19:13;97659.0;;;10.9;85.74
23361;BME280;11852;50.082;18.554;2023-03-25T06:20:24;97656.5;;;10.77;85.61
23361;BME280;11852;50.082;18.554;2023-03-25T06:21:34;97658.5;;;10.91;85.17
23361;BME280;11852;50.082;18.554;2023-03-25T06:22:43;97662.0;;;10.97;85.04
23361;BME280;11852;50.082;18.554;2023-03-25T06:23:50;97660.5;;;10.93;84.94
23361;BME280;11852;50.082;18.554;2023-03-25T06:24:57;97661.5;;;10.75;85.28
23361;BME280;11852;50.082;18.554;2023-03-25T06:26:04;97663.0;;;10.72;85.07
23361;BME280;11852;50.082;18.554;2023-03-25T06:27:14;97666.0;;;10.73;84.95
23361;BME280;11852;50.082;18.554;2023-03-25T06:28:20;97669.99;;;10.76;84.65
23361;BME280;11852;50.082;18.554;2023-03-25T06:29:27;97673.5;;;10.75;84.46
23361;BME280;11852;50.082;18.554;2023-03-25T06:30:34;97676.0;;;10.82;84.16
23361;BME280;11852;50.082;18.554;2023-03-25T06:31:41;97678.0;;;10.91;84.01
23361;BME280;11852;50.082;18.554;2023-03-25T06:32:48;97680.51;;;10.85;84.2
23361;BME280;11852;50.082;18.554;2023-03-25T06:33:55;97678.5;;;10.95;83.83
23361;BME280;11852;50.082;18.554;2023-03-25T06:35:01;97680.01;;;10.95;83.86
23361;BME280;11852;50.082;18.554;2023-03-25T06:36:09;97679.51;;;10.98;83.64
23361;BME280;11852;50.082;18.554;2023-03-25T06:37:15;97682.0;;;11.05;82.71
23361;BME280;11852;50.082;18.554;2023-03-25T06:38:22;97675.5;;;10.95;83.42
23361;BME280;11852;50.082;18.554;2023-03-25T06:39:29;97675.5;;;11.06;82.99
23361;BME280;11852;50.082;18.554;2023-03-25T06:40:36;97669.0;;;11.03;83.07
23361;BME280;11852;50.082;18.554;2023-03-25T06:41:43;97668.0;;;11.01;83.01
23361;BME280;11852;50.082;18.554;2023-03-25T06:42:50;97667.01;;;11.01;82.01